createdAt,value
2017-10-11T00:00:23.032Z,80.07
2017-10-11T00:01:23.050Z,80.36
2017-10-11T00:02:23.067Z,80.07
2017-10-11T00:03:23.080Z,80.55
2017-10-11T00:04:23.433Z,80.36
2017-10-11T00:05:23.449Z,80.74
2017-10-11T00:06:23.470Z,80.17
2017-10-11T00:07:23.490Z,80.36
2017-10-11T00:08:23.166Z,79.98
2017-10-11T00:09:23.527Z,80.36
2017-10-11T00:10:23.206Z,80.93
2017-10-11T00:11:23.222Z,80.84
2017-10-11T00:12:23.574Z,81.13
2017-10-11T00:13:23.255Z,80.74
2017-10-11T00:14:23.273Z,80.93
2017-10-11T00:15:23.626Z,80.93
2017-10-11T00:16:23.654Z,80.65
2017-10-11T00:17:23.662Z,81.41
2017-10-11T00:18:23.694Z,81.41
2017-10-11T00:19:23.364Z,81.03
2017-10-11T00:20:23.381Z,81.22
2017-10-11T00:21:23.400Z,80.84
2017-10-11T00:22:23.415Z,81.41
2017-10-11T00:23:23.770Z,81.03
2017-10-11T00:24:23.786Z,81.13
2017-10-11T00:25:23.806Z,81.22
2017-10-11T00:26:23.487Z,81.41
2017-10-11T00:27:23.504Z,81.41
2017-10-11T00:28:23.521Z,81.7
2017-10-11T00:29:23.541Z,81.51
2017-10-11T00:30:23.559Z,81.13
2017-10-11T00:31:23.575Z,81.79
2017-10-11T00:32:23.926Z,81.7
2017-10-11T00:33:23.946Z,81.6
2017-10-11T00:34:23.961Z,81.6
2017-10-11T00:35:23.982Z,81.51
2017-10-11T00:36:23.665Z,81.89
2017-10-11T00:37:23.682Z,81.41
2017-10-11T00:38:24.035Z,81.03
2017-10-11T00:39:24.061Z,81.41
2017-10-11T00:40:23.737Z,81.32
2017-10-11T00:41:24.096Z,81.22
2017-10-11T00:42:23.773Z,80.93
2017-10-11T00:43:24.121Z,81.03
2017-10-11T00:44:24.161Z,81.22
2017-10-11T00:45:24.160Z,81.13
2017-10-11T00:46:24.178Z,81.32
2017-10-11T00:47:23.861Z,81.22
2017-10-11T00:48:23.879Z,81.03
2017-10-11T00:49:24.233Z,81.03
2017-10-11T00:50:24.249Z,81.41
2017-10-11T00:51:23.952Z,81.41
2017-10-11T00:52:23.948Z,81.7
2017-10-11T00:53:23.969Z,81.7
2017-10-11T00:54:23.985Z,81.32
2017-10-11T00:55:24.004Z,81.41
2017-10-11T00:56:24.355Z,81.03
2017-10-11T00:57:24.040Z,81.32
2017-10-11T00:58:24.391Z,81.22
2017-10-11T00:59:24.409Z,81.13
2017-10-11T01:00:24.428Z,81.32
2017-10-11T01:01:24.110Z,81.03
2017-10-11T01:02:24.461Z,81.22
2017-10-11T01:03:24.522Z,81.22
2017-10-11T01:04:24.163Z,81.22
2017-10-11T01:05:24.183Z,81.03
2017-10-11T01:06:24.531Z,81.32
2017-10-11T01:07:24.555Z,81.13
2017-10-11T01:08:24.234Z,81.13
2017-10-11T01:09:24.587Z,81.32
2017-10-11T01:10:24.606Z,80.84
2017-10-11T01:11:24.292Z,81.03
2017-10-11T01:12:24.309Z,81.03
2017-10-11T01:13:24.322Z,80.65
2017-10-11T01:14:24.343Z,81.22
2017-10-11T01:15:24.361Z,80.84
2017-10-11T01:16:24.379Z,80.65
2017-10-11T01:17:24.729Z,81.03
2017-10-11T01:18:24.411Z,81.41
2017-10-11T01:19:24.430Z,80.84
2017-10-11T01:20:24.800Z,81.03
2017-10-11T01:21:24.800Z,80.84
2017-10-11T01:22:24.485Z,80.84
2017-10-11T01:23:24.503Z,80.74
2017-10-11T01:24:24.855Z,81.03
2017-10-11T01:25:24.870Z,80.74
2017-10-11T01:26:24.554Z,81.03
2017-10-11T01:27:24.572Z,80.74
2017-10-11T01:28:24.928Z,81.03
2017-10-11T01:29:24.949Z,81.03
2017-10-11T01:30:24.962Z,80.84
2017-10-11T01:31:24.982Z,80.55
2017-10-11T01:32:25.002Z,80.46
2017-10-11T01:33:25.013Z,80.55
2017-10-11T01:34:24.707Z,80.55
2017-10-11T01:35:25.052Z,80.84
2017-10-11T01:36:25.068Z,80.74
2017-10-11T01:37:25.087Z,81.03
2017-10-11T01:38:24.769Z,80.93
2017-10-11T01:39:24.792Z,80.36
2017-10-11T01:40:24.805Z,80.17
2017-10-11T01:41:25.157Z,80.27
2017-10-11T01:42:25.175Z,80.27
2017-10-11T01:43:25.190Z,80.27
2017-10-11T01:44:24.883Z,79.98
2017-10-11T01:45:24.893Z,80.07
2017-10-11T01:46:25.245Z,80.07
2017-10-11T01:47:24.930Z,80.55
2017-10-11T01:48:25.281Z,80.46
2017-10-11T01:49:25.300Z,80.55
2017-10-11T01:50:24.984Z,80.93
2017-10-11T01:51:25.336Z,81.03
2017-10-11T01:52:25.016Z,80.74
2017-10-11T01:53:25.368Z,80.65
2017-10-11T01:54:25.389Z,81.13
2017-10-11T01:55:25.071Z,80.74
2017-10-11T01:56:25.423Z,81.03
2017-10-11T01:57:25.445Z,81.22
2017-10-11T01:58:25.124Z,81.03
2017-10-11T01:59:25.153Z,81.03
2017-10-11T02:00:25.158Z,80.55
2017-10-11T02:01:25.514Z,81.03
2017-10-11T02:02:25.196Z,80.93
2017-10-11T02:03:25.215Z,80.74
2017-10-11T02:04:25.566Z,81.13
2017-10-11T02:05:25.249Z,81.32
2017-10-11T02:06:25.267Z,81.13
2017-10-11T02:07:25.622Z,81.13
2017-10-11T02:08:25.301Z,81.41
2017-10-11T02:09:25.655Z,81.41
2017-10-11T02:10:25.338Z,81.41
2017-10-11T02:11:25.690Z,81.13
2017-10-11T02:12:25.708Z,81.32
2017-10-11T02:13:25.728Z,81.51
2017-10-11T02:14:25.410Z,81.32
2017-10-11T02:15:25.426Z,81.41
2017-10-11T02:16:25.778Z,81.51
2017-10-11T02:17:25.460Z,81.41
2017-10-11T02:18:25.813Z,81.7
2017-10-11T02:19:25.853Z,81.7
2017-10-11T02:20:25.515Z,81.79
2017-10-11T02:21:25.533Z,81.22
2017-10-11T02:22:25.884Z,81.6
2017-10-11T02:23:25.574Z,81.41
2017-10-11T02:24:25.952Z,81.7
2017-10-11T02:25:25.605Z,81.6
2017-10-11T02:26:25.623Z,81.7
2017-10-11T02:27:25.972Z,81.7
2017-10-11T02:28:26.011Z,81.79
2017-10-11T02:29:25.675Z,81.6
2017-10-11T02:30:25.691Z,81.41
2017-10-11T02:31:26.045Z,81.22
2017-10-11T02:32:25.728Z,81.41
2017-10-11T02:33:26.086Z,81.41
2017-10-11T02:34:26.095Z,81.6
2017-10-11T02:35:25.784Z,81.6
2017-10-11T02:36:26.132Z,81.79
2017-10-11T02:37:26.155Z,81.79
2017-10-11T02:38:25.831Z,81.89
2017-10-11T02:39:25.853Z,81.79
2017-10-11T02:40:26.202Z,81.79
2017-10-11T02:41:26.221Z,81.6
2017-10-11T02:42:26.258Z,81.99
2017-10-11T02:43:25.929Z,81.79
2017-10-11T02:44:26.274Z,82.28
2017-10-11T02:45:25.959Z,81.7
2017-10-11T02:46:26.309Z,81.79
2017-10-11T02:47:26.325Z,81.7
2017-10-11T02:48:26.344Z,81.79
2017-10-11T02:49:26.368Z,81.41
2017-10-11T02:50:26.048Z,81.7
2017-10-11T02:51:26.066Z,81.6
2017-10-11T02:52:26.084Z,81.79
2017-10-11T02:53:26.100Z,81.6
2017-10-11T02:54:26.465Z,81.32
2017-10-11T02:55:26.472Z,81.6
2017-10-11T02:56:26.486Z,81.6
2017-10-11T02:57:26.512Z,81.41
2017-10-11T02:58:26.199Z,81.89
2017-10-11T02:59:26.208Z,81.6
2017-10-11T03:00:26.558Z,81.6
2017-10-11T03:01:26.243Z,82.08
2017-10-11T03:02:26.259Z,81.99
2017-10-11T03:03:26.609Z,81.99
2017-10-11T03:04:26.631Z,81.6
2017-10-11T03:05:26.646Z,81.51
2017-10-11T03:06:26.664Z,81.51
2017-10-11T03:07:26.697Z,82.28
2017-10-11T03:08:26.366Z,81.79
2017-10-11T03:09:26.720Z,82.08
2017-10-11T03:10:26.736Z,81.89
2017-10-11T03:11:26.755Z,81.89
2017-10-11T03:12:26.769Z,81.89
2017-10-11T03:13:26.461Z,82.28
2017-10-11T03:14:26.471Z,81.6
2017-10-11T03:15:26.491Z,82.28
2017-10-11T03:16:26.839Z,81.89
2017-10-11T03:17:26.532Z,81.89
2017-10-11T03:18:26.876Z,81.99
2017-10-11T03:19:26.894Z,81.89
2017-10-11T03:20:26.579Z,81.89
2017-10-11T03:21:26.599Z,82.08
2017-10-11T03:22:26.615Z,81.51
2017-10-11T03:23:26.636Z,81.6
2017-10-11T03:24:26.652Z,81.6
2017-10-11T03:25:26.668Z,81.6
2017-10-11T03:26:27.023Z,81.7
2017-10-11T03:27:27.036Z,81.51
2017-10-11T03:28:26.721Z,81.41
2017-10-11T03:29:26.753Z,81.6
2017-10-11T03:30:27.099Z,81.22
2017-10-11T03:31:26.810Z,81.13
2017-10-11T03:32:26.794Z,81.7
2017-10-11T03:33:27.163Z,81.6
2017-10-11T03:34:26.829Z,81.89
2017-10-11T03:35:27.182Z,81.41
2017-10-11T03:36:26.864Z,81.51
2017-10-11T03:37:27.220Z,81.6
2017-10-11T03:38:26.955Z,81.51
2017-10-11T03:39:27.255Z,81.6
2017-10-11T03:40:27.272Z,81.7
2017-10-11T03:41:26.958Z,81.89
2017-10-11T03:42:27.311Z,81.7
2017-10-11T03:43:27.322Z,81.89
2017-10-11T03:44:27.007Z,81.89
2017-10-11T03:45:27.357Z,82.18
2017-10-11T03:46:27.379Z,81.79
2017-10-11T03:47:27.393Z,81.89
2017-10-11T03:48:27.079Z,81.79
2017-10-11T03:49:27.429Z,82.37
2017-10-11T03:50:27.448Z,82.18
2017-10-11T03:51:27.130Z,81.79
2017-10-11T03:52:27.150Z,81.7
2017-10-11T03:53:27.499Z,81.6
2017-10-11T03:54:27.517Z,82.08
2017-10-11T03:55:27.202Z,81.79
2017-10-11T03:56:27.555Z,82.37
2017-10-11T03:57:27.578Z,81.79
2017-10-11T03:58:27.255Z,82.08
2017-10-11T03:59:27.609Z,81.99
2017-10-11T04:00:27.628Z,81.99
2017-10-11T04:01:27.306Z,81.99
2017-10-11T04:02:27.659Z,81.99
2017-10-11T04:03:27.681Z,81.7
2017-10-11T04:04:27.362Z,82.28
2017-10-11T04:05:27.380Z,82.28
2017-10-11T04:06:27.401Z,82.28
2017-10-11T04:07:27.749Z,82.37
2017-10-11T04:08:27.768Z,81.79
2017-10-11T04:09:27.780Z,81.99
2017-10-11T04:10:27.471Z,82.28
2017-10-11T04:11:27.485Z,82.08
2017-10-11T04:12:27.508Z,81.89
2017-10-11T04:13:27.522Z,82.46
2017-10-11T04:14:27.541Z,82.28
2017-10-11T04:15:27.559Z,81.79
2017-10-11T04:16:27.909Z,81.99
2017-10-11T04:17:27.929Z,82.37
2017-10-11T04:18:27.611Z,81.79
2017-10-11T04:19:27.963Z,81.99
2017-10-11T04:20:27.980Z,81.99
2017-10-11T04:21:27.998Z,81.99
2017-10-11T04:22:27.685Z,81.79
2017-10-11T04:23:28.035Z,81.89
2017-10-11T04:24:27.719Z,81.89
2017-10-11T04:25:27.736Z,81.99
2017-10-11T04:26:27.753Z,82.28
2017-10-11T04:27:27.773Z,82.08
2017-10-11T04:28:28.122Z,82.08
2017-10-11T04:29:27.809Z,81.99
2017-10-11T04:30:28.169Z,81.99
2017-10-11T04:31:27.843Z,81.7
2017-10-11T04:32:27.861Z,81.99
2017-10-11T04:33:27.894Z,81.7
2017-10-11T04:34:27.901Z,81.99
2017-10-11T04:35:27.928Z,81.99
2017-10-11T04:36:27.932Z,82.37
2017-10-11T04:37:28.285Z,82.37
2017-10-11T04:38:28.303Z,81.7
2017-10-11T04:39:28.319Z,81.99
2017-10-11T04:40:28.335Z,81.89
2017-10-11T04:41:28.360Z,81.79
2017-10-11T04:42:28.071Z,81.32
2017-10-11T04:43:28.059Z,82.28
2017-10-11T04:44:28.410Z,81.99
2017-10-11T04:45:28.438Z,82.28
2017-10-11T04:46:28.111Z,81.99
2017-10-11T04:47:28.136Z,81.89
2017-10-11T04:48:28.483Z,81.51
2017-10-11T04:49:28.506Z,81.41
2017-10-11T04:50:28.181Z,81.41
2017-10-11T04:51:28.206Z,81.6
2017-10-11T04:52:28.218Z,81.32
2017-10-11T04:53:28.569Z,81.6
2017-10-11T04:54:28.589Z,81.51
2017-10-11T04:55:28.272Z,81.6
2017-10-11T04:56:28.288Z,81.41
2017-10-11T04:57:28.307Z,81.41
2017-10-11T04:58:28.324Z,81.7
2017-10-11T04:59:28.344Z,81.79
2017-10-11T05:00:28.693Z,81.6
2017-10-11T05:01:28.382Z,81.51
2017-10-11T05:02:28.734Z,81.6
2017-10-11T05:03:28.751Z,81.51
2017-10-11T05:04:28.766Z,81.7
2017-10-11T05:05:28.783Z,81.79
2017-10-11T05:06:28.802Z,81.32
2017-10-11T05:07:28.487Z,81.22
2017-10-11T05:08:28.503Z,81.13
2017-10-11T05:09:28.858Z,81.22
2017-10-11T05:10:28.871Z,80.74
2017-10-11T05:11:28.893Z,81.03
2017-10-11T05:12:28.911Z,81.03
2017-10-11T05:13:28.929Z,80.74
2017-10-11T05:14:28.947Z,80.74
2017-10-11T05:15:28.962Z,80.74
2017-10-11T05:16:28.648Z,80.93
2017-10-11T05:17:28.666Z,80.74
2017-10-11T05:18:29.018Z,81.03
2017-10-11T05:19:29.034Z,81.03
2017-10-11T05:20:28.718Z,80.74
2017-10-11T05:21:29.072Z,81.03
2017-10-11T05:22:28.757Z,81.03
2017-10-11T05:23:28.771Z,80.65
2017-10-11T05:24:29.128Z,80.55
2017-10-11T05:25:29.145Z,80.93
2017-10-11T05:26:29.159Z,80.65
2017-10-11T05:27:28.844Z,81.03
2017-10-11T05:28:28.860Z,80.93
2017-10-11T05:29:28.877Z,80.93
2017-10-11T05:30:29.237Z,80.93
2017-10-11T05:31:28.912Z,80.55
2017-10-11T05:32:29.274Z,80.93
2017-10-11T05:33:29.285Z,80.84
2017-10-11T05:34:28.969Z,80.74
2017-10-11T05:35:28.986Z,80.74
2017-10-11T05:36:29.004Z,80.93
2017-10-11T05:37:29.361Z,80.93
2017-10-11T05:38:29.381Z,81.03
2017-10-11T05:39:29.391Z,80.74
2017-10-11T05:40:29.420Z,81.03
2017-10-11T05:41:29.092Z,81.22
2017-10-11T05:42:29.109Z,81.41
2017-10-11T05:43:29.129Z,81.22
2017-10-11T05:44:29.499Z,81.13
2017-10-11T05:45:29.498Z,81.22
2017-10-11T05:46:29.520Z,81.13
2017-10-11T05:47:29.537Z,81.22
2017-10-11T05:48:29.550Z,81.51
2017-10-11T05:49:29.566Z,81.6
2017-10-11T05:50:29.594Z,81.32
2017-10-11T05:51:29.270Z,81.22
2017-10-11T05:52:29.630Z,81.32
2017-10-11T05:53:29.641Z,81.6
2017-10-11T05:54:29.663Z,81.6
2017-10-11T05:55:29.343Z,81.13
2017-10-11T05:56:29.373Z,81.41
2017-10-11T05:57:29.717Z,81.32
2017-10-11T05:58:29.732Z,81.32
2017-10-11T05:59:29.413Z,81.41
2017-10-11T06:00:29.431Z,81.7
2017-10-11T06:01:29.796Z,81.6
2017-10-11T06:02:29.468Z,81.7
2017-10-11T06:03:29.817Z,81.6
2017-10-11T06:04:29.837Z,81.6
2017-10-11T06:05:29.521Z,81.6
2017-10-11T06:06:29.540Z,81.6
2017-10-11T06:07:29.558Z,81.6
2017-10-11T06:08:29.917Z,81.7
2017-10-11T06:09:29.924Z,81.51
2017-10-11T06:10:29.608Z,81.41
2017-10-11T06:11:29.627Z,81.32
2017-10-11T06:12:29.648Z,81.7
2017-10-11T06:13:29.995Z,81.7
2017-10-11T06:14:30.016Z,81.6
2017-10-11T06:15:29.699Z,81.79
2017-10-11T06:16:29.717Z,81.32
2017-10-11T06:17:30.068Z,81.79
2017-10-11T06:18:29.754Z,81.13
2017-10-11T06:19:29.771Z,81.7
2017-10-11T06:20:29.788Z,81.6
2017-10-11T06:21:30.142Z,81.7
2017-10-11T06:22:30.156Z,81.7
2017-10-11T06:23:29.842Z,81.79
2017-10-11T06:24:29.860Z,81.51
2017-10-11T06:25:30.212Z,81.51
2017-10-11T06:26:29.905Z,81.7
2017-10-11T06:27:30.279Z,81.51
2017-10-11T06:28:29.932Z,81.6
2017-10-11T06:29:30.286Z,81.55
2017-10-11T06:30:30.299Z,81.41
2017-10-11T06:31:29.985Z,81.51
2017-10-11T06:32:30.003Z,81.7
2017-10-11T06:33:30.362Z,81.32
2017-10-11T06:34:30.039Z,81.51
2017-10-11T06:35:30.057Z,81.41
2017-10-11T06:36:30.072Z,81.6
2017-10-11T06:37:30.091Z,81.7
2017-10-11T06:38:30.443Z,81.13
2017-10-11T06:39:30.460Z,81.51
2017-10-11T06:40:30.143Z,81.7
2017-10-11T06:41:30.499Z,81.7
2017-10-11T06:42:30.181Z,81.51
2017-10-11T06:43:30.532Z,81.6
2017-10-11T06:44:30.217Z,81.41
2017-10-11T06:45:30.234Z,81.65
2017-10-11T06:46:30.586Z,81.65
2017-10-11T06:47:30.606Z,81.55
2017-10-11T06:48:30.622Z,81.36
2017-10-11T06:49:30.641Z,81.74
2017-10-11T06:50:30.657Z,81.65
2017-10-11T06:51:30.343Z,81.45
2017-10-11T06:52:30.359Z,81.55
2017-10-11T06:53:30.378Z,81.32
2017-10-11T06:54:30.393Z,81.36
2017-10-11T06:55:30.749Z,81.16
2017-10-11T06:56:30.767Z,81.26
2017-10-11T06:57:30.447Z,81.36
2017-10-11T06:58:30.814Z,81.07
2017-10-11T06:59:30.820Z,81.07
2017-10-11T07:00:30.504Z,81.16
2017-10-11T07:01:30.522Z,81.26
2017-10-11T07:02:30.538Z,81.26
2017-10-11T07:03:30.560Z,81.26
2017-10-11T07:04:30.907Z,81.16
2017-10-11T07:05:30.927Z,80.98
2017-10-11T07:06:30.975Z,80.98
2017-10-11T07:07:30.970Z,80.88
2017-10-11T07:08:30.644Z,80.88
2017-10-11T07:09:30.666Z,80.79
2017-10-11T07:10:30.683Z,80.88
2017-10-11T07:11:31.035Z,81.07
2017-10-11T07:12:30.721Z,80.98
2017-10-11T07:13:30.738Z,81.07
2017-10-11T07:14:31.089Z,80.98
2017-10-11T07:15:31.110Z,81.16
2017-10-11T07:16:30.791Z,80.98
2017-10-11T07:17:31.152Z,80.88
2017-10-11T07:18:30.828Z,80.98
2017-10-11T07:19:31.178Z,80.98
2017-10-11T07:20:31.196Z,80.3
2017-10-11T07:21:31.225Z,80.3
2017-10-11T07:22:30.899Z,80.3
2017-10-11T07:23:31.262Z,80.69
2017-10-11T07:24:31.277Z,81.07
2017-10-11T07:25:31.287Z,80.69
2017-10-11T07:26:31.305Z,80.98
2017-10-11T07:27:30.988Z,80.4
2017-10-11T07:28:31.007Z,80.79
2017-10-11T07:29:31.363Z,80.4
2017-10-11T07:30:31.379Z,80.4
2017-10-11T07:31:31.067Z,80.02
2017-10-11T07:32:31.414Z,79.93
2017-10-11T07:33:31.108Z,80.02
2017-10-11T07:34:31.447Z,79.83
2017-10-11T07:35:31.136Z,79.73
2017-10-11T07:36:31.485Z,80.02
2017-10-11T07:37:31.177Z,79.73
2017-10-11T07:38:31.532Z,79.54
2017-10-11T07:39:31.211Z,79.83
2017-10-11T07:40:31.560Z,79.29
2017-10-11T07:41:31.241Z,79.35
2017-10-11T07:42:31.592Z,79.35
2017-10-11T07:43:31.615Z,80.25
2017-10-11T07:44:31.628Z,79.87
2017-10-11T07:45:31.315Z,79.96
2017-10-11T07:46:31.667Z,80.16
2017-10-11T07:47:31.351Z,80.25
2017-10-11T07:48:31.370Z,79.68
2017-10-11T07:49:31.389Z,79.49
2017-10-11T07:50:31.741Z,79.77
2017-10-11T07:51:31.424Z,79.49
2017-10-11T07:52:31.790Z,79.77
2017-10-11T07:53:31.799Z,79.58
2017-10-11T07:54:31.817Z,79.49
2017-10-11T07:55:31.831Z,79.49
2017-10-11T07:56:31.851Z,79.49
2017-10-11T07:57:31.546Z,79.29
2017-10-11T07:58:31.883Z,78.81
2017-10-11T07:59:31.569Z,79.49
2017-10-11T08:00:31.587Z,79.1
2017-10-11T08:01:31.608Z,79
2017-10-11T08:02:31.955Z,79
2017-10-11T08:03:31.976Z,79.1
2017-10-11T08:04:32.006Z,79.2
2017-10-11T08:05:32.012Z,78.91
2017-10-11T08:06:31.698Z,78.63
2017-10-11T08:07:31.713Z,78.43
2017-10-11T08:08:32.069Z,78.91
2017-10-11T08:09:32.084Z,78.81
2017-10-11T08:10:32.103Z,78.72
2017-10-11T08:11:32.128Z,78.53
2017-10-11T08:12:31.807Z,78.34
2017-10-11T08:13:32.156Z,78.81
2017-10-11T08:14:32.175Z,78.14
2017-10-11T08:15:32.196Z,78.34
2017-10-11T08:16:32.225Z,78.53
2017-10-11T08:17:32.420Z,78.24
2017-10-11T08:18:31.916Z,78.05
2017-10-11T08:19:32.274Z,77.86
2017-10-11T08:20:32.289Z,77.57
2017-10-11T08:21:32.306Z,77.51
2017-10-11T08:22:31.989Z,77.51
2017-10-11T08:23:32.342Z,77.23
2017-10-11T08:24:32.358Z,77.61
2017-10-11T08:25:32.382Z,76.94
2017-10-11T08:26:32.064Z,77.23
2017-10-11T08:27:32.416Z,77.23
2017-10-11T08:28:32.099Z,76.37
2017-10-11T08:29:32.119Z,77.13
2017-10-11T08:30:32.516Z,77.33
2017-10-11T08:31:32.488Z,76.94
2017-10-11T08:32:32.509Z,76.27
2017-10-11T08:33:32.528Z,76.37
2017-10-11T08:34:32.211Z,76.79
2017-10-11T08:35:32.236Z,76.5
2017-10-11T08:36:32.249Z,76.31
2017-10-11T08:37:32.271Z,75.83
2017-10-11T08:38:32.619Z,75.64
2017-10-11T08:39:32.641Z,75.54
2017-10-11T08:40:32.659Z,75.93
2017-10-11T08:41:32.680Z,75.83
2017-10-11T08:42:32.697Z,75.83
2017-10-11T08:43:32.374Z,75.54
2017-10-11T08:44:32.731Z,75.45
2017-10-11T08:45:32.748Z,75.26
2017-10-11T08:46:32.765Z,75.54
2017-10-11T08:47:32.450Z,75.29
2017-10-11T08:48:32.804Z,75.2
2017-10-11T08:49:32.488Z,74.58
2017-10-11T08:50:32.840Z,74.82
2017-10-11T08:51:32.857Z,75.01
2017-10-11T08:52:32.545Z,74.52
2017-10-11T08:53:32.562Z,74.62
2017-10-11T08:54:32.580Z,74.15
2017-10-11T08:55:32.957Z,74.24
2017-10-11T08:56:32.622Z,74.52
2017-10-11T08:57:32.970Z,74.05
2017-10-11T08:58:32.987Z,73.95
2017-10-11T08:59:32.674Z,74.24
2017-10-11T09:00:33.033Z,74.33
2017-10-11T09:01:33.046Z,74.24
2017-10-11T09:02:32.730Z,74.15
2017-10-11T09:03:33.086Z,74.37
2017-10-11T09:04:33.104Z,74.18
2017-10-11T09:05:32.790Z,74.18
2017-10-11T09:06:33.146Z,73.99
2017-10-11T09:07:32.828Z,73.41
2017-10-11T09:08:33.179Z,73.8
2017-10-11T09:09:32.866Z,73.9
2017-10-11T09:10:32.886Z,73.32
2017-10-11T09:11:33.238Z,73.41
2017-10-11T09:12:33.260Z,73.9
2017-10-11T09:13:33.274Z,73.13
2017-10-11T09:14:32.960Z,73.41
2017-10-11T09:15:33.310Z,73.41
2017-10-11T09:16:32.996Z,73.32
2017-10-11T09:17:33.351Z,73.51
2017-10-11T09:18:33.038Z,73.03
2017-10-11T09:19:33.055Z,73.51
2017-10-11T09:20:33.408Z,73.51
2017-10-11T09:21:33.093Z,73.13
2017-10-11T09:22:33.445Z,72.94
2017-10-11T09:23:33.131Z,73.22
2017-10-11T09:24:33.151Z,72.74
2017-10-11T09:25:33.508Z,72.55
2017-10-11T09:26:33.530Z,72.55
2017-10-11T09:27:33.543Z,72.55
2017-10-11T09:28:33.231Z,72.55
2017-10-11T09:29:33.589Z,72.68
2017-10-11T09:30:33.268Z,72.74
2017-10-11T09:31:33.624Z,72.55
2017-10-11T09:32:33.313Z,72.78
2017-10-11T09:33:33.661Z,72.55
2017-10-11T09:34:33.345Z,72.74
2017-10-11T09:35:33.363Z,72.64
2017-10-11T09:36:33.383Z,72.97
2017-10-11T09:37:33.743Z,71.72
2017-10-11T09:38:33.424Z,72.3
2017-10-11T09:39:33.441Z,72.3
2017-10-11T09:40:33.461Z,71.82
2017-10-11T09:41:33.820Z,71.53
2017-10-11T09:42:33.499Z,71.72
2017-10-11T09:43:33.853Z,71.34
2017-10-11T09:44:33.872Z,71.72
2017-10-11T09:45:33.890Z,71.82
2017-10-11T09:46:33.933Z,71.72
2017-10-11T09:47:33.932Z,71.53
2017-10-11T09:48:33.617Z,71.15
2017-10-11T09:49:33.969Z,71.05
2017-10-11T09:50:33.654Z,71.05
2017-10-11T09:51:33.679Z,71.25
2017-10-11T09:52:34.030Z,70.86
2017-10-11T09:53:34.048Z,71.34
2017-10-11T09:54:33.738Z,71.25
2017-10-11T09:55:34.091Z,71.05
2017-10-11T09:56:33.775Z,70.86
2017-10-11T09:57:33.793Z,70.76
2017-10-11T09:58:33.812Z,70.67
2017-10-11T09:59:34.170Z,70.57
2017-10-11T10:00:33.852Z,69.81
2017-10-11T10:01:34.205Z,70.09
2017-10-11T10:02:34.227Z,70.32
2017-10-11T10:03:34.244Z,69.46
2017-10-11T10:04:34.264Z,69.93
2017-10-11T10:05:34.283Z,69.36
2017-10-11T10:06:34.302Z,68.88
2017-10-11T10:07:33.989Z,69.17
2017-10-11T10:08:34.343Z,69.07
2017-10-11T10:09:34.369Z,68.69
2017-10-11T10:10:34.048Z,69.17
2017-10-11T10:11:34.070Z,68.69
2017-10-11T10:12:34.424Z,68.21
2017-10-11T10:13:34.109Z,68.79
2017-10-11T10:14:34.463Z,68.98
2017-10-11T10:15:34.704Z,68.3
2017-10-11T10:16:34.167Z,68.59
2017-10-11T10:17:34.538Z,68.02
2017-10-11T10:18:34.211Z,67.92
2017-10-11T10:19:34.564Z,68.3
2017-10-11T10:20:34.587Z,68.12
2017-10-11T10:21:34.268Z,68.4
2017-10-11T10:22:34.293Z,67.63
2017-10-11T10:23:34.641Z,67.76
2017-10-11T10:24:34.669Z,68.5
2017-10-11T10:25:34.683Z,68.21
2017-10-11T10:26:34.374Z,68.63
2017-10-11T10:27:34.728Z,67.47
2017-10-11T10:28:34.408Z,67.19
2017-10-11T10:29:34.428Z,67.57
2017-10-11T10:30:34.828Z,67.86
2017-10-11T10:31:34.810Z,67.47
2017-10-11T10:32:34.489Z,67.67
2017-10-11T10:33:34.840Z,67.47
2017-10-11T10:34:34.528Z,67.86
2017-10-11T10:35:34.882Z,67.47
2017-10-11T10:36:34.900Z,67
2017-10-11T10:37:34.593Z,67
2017-10-11T10:38:34.942Z,67.47
2017-10-11T10:39:34.630Z,67.19
2017-10-11T10:40:34.986Z,66.71
2017-10-11T10:41:35.005Z,67.03
2017-10-11T10:42:34.691Z,67.03
2017-10-11T10:43:35.089Z,66.55
2017-10-11T10:44:35.063Z,66.71
2017-10-11T10:45:35.086Z,66.64
2017-10-11T10:46:34.823Z,66.74
2017-10-11T10:47:34.841Z,66.52
2017-10-11T10:48:34.816Z,66.55
2017-10-11T10:49:35.169Z,66.52
2017-10-11T10:50:34.857Z,66.03
2017-10-11T10:51:34.879Z,66.13
2017-10-11T10:52:34.897Z,66.42
2017-10-11T10:53:34.914Z,66.13
2017-10-11T10:54:35.269Z,66.42
2017-10-11T10:55:35.290Z,66.16
2017-10-11T10:56:34.977Z,66.52
2017-10-11T10:57:34.998Z,66.03
2017-10-11T10:58:35.015Z,66.52
2017-10-11T10:59:35.382Z,66.03
2017-10-11T11:00:35.058Z,66.42
2017-10-11T11:01:35.423Z,65.84
2017-10-11T11:02:35.431Z,66.33
2017-10-11T11:03:35.455Z,66.13
2017-10-11T11:04:35.139Z,66.07
2017-10-11T11:05:35.493Z,66.07
2017-10-11T11:06:35.179Z,66.03
2017-10-11T11:07:35.202Z,65.59
2017-10-11T11:08:35.222Z,65.69
2017-10-11T11:09:35.240Z,65.78
2017-10-11T11:10:35.263Z,65.4
2017-10-11T11:11:35.615Z,65.78
2017-10-11T11:12:35.636Z,65.2
2017-10-11T11:13:35.323Z,65.88
2017-10-11T11:14:35.678Z,65.11
2017-10-11T11:15:35.365Z,65.88
2017-10-11T11:16:35.384Z,66.07
2017-10-11T11:17:35.739Z,65.59
2017-10-11T11:18:35.764Z,65.69
2017-10-11T11:19:35.451Z,65.78
2017-10-11T11:20:35.466Z,65.69
2017-10-11T11:21:35.821Z,65.4
2017-10-11T11:22:35.509Z,65.59
2017-10-11T11:23:35.529Z,65.4
2017-10-11T11:24:35.884Z,65.49
2017-10-11T11:25:35.909Z,65.69
2017-10-11T11:26:35.593Z,65.78
2017-10-11T11:27:35.948Z,65.11
2017-10-11T11:28:35.974Z,65.3
2017-10-11T11:29:35.986Z,64.63
2017-10-11T11:30:36.007Z,64.82
2017-10-11T11:31:36.031Z,64.53
2017-10-11T11:32:36.048Z,64.63
2017-10-11T11:33:36.069Z,64.37
2017-10-11T11:34:36.089Z,64.53
2017-10-11T11:35:36.110Z,64.63
2017-10-11T11:36:35.797Z,64.34
2017-10-11T11:37:36.159Z,64.63
2017-10-11T11:38:36.171Z,63.86
2017-10-11T11:39:36.191Z,64.05
2017-10-11T11:40:35.884Z,64.63
2017-10-11T11:41:36.235Z,64.53
2017-10-11T11:42:36.255Z,64.34
2017-10-11T11:43:36.275Z,64.53
2017-10-11T11:44:36.298Z,64.63
2017-10-11T11:45:36.321Z,64.15
2017-10-11T11:46:36.341Z,64.15
2017-10-11T11:47:36.359Z,64.09
2017-10-11T11:48:36.388Z,64.47
2017-10-11T11:49:36.066Z,63.67
2017-10-11T11:50:36.420Z,64.05
2017-10-11T11:51:36.108Z,64.18
2017-10-11T11:52:36.464Z,64.66
2017-10-11T11:53:36.684Z,64.43
2017-10-11T11:54:36.519Z,64.76
2017-10-11T11:55:36.193Z,64.56
2017-10-11T11:56:36.543Z,64.66
2017-10-11T11:57:36.567Z,64.66
2017-10-11T11:58:36.254Z,64.28
2017-10-11T11:59:36.273Z,64.66
2017-10-11T12:00:36.629Z,64.66
2017-10-11T12:01:36.651Z,64.28
2017-10-11T12:02:36.671Z,63.99
2017-10-11T12:03:36.691Z,64.09
2017-10-11T12:04:36.715Z,64.09
2017-10-11T12:05:36.399Z,64.37
2017-10-11T12:06:36.420Z,64.56
2017-10-11T12:07:36.774Z,64.56
2017-10-11T12:08:36.460Z,64.85
2017-10-11T12:09:36.487Z,64.18
2017-10-11T12:10:36.513Z,64.18
2017-10-11T12:11:36.857Z,63.79
2017-10-11T12:12:36.881Z,64.09
2017-10-11T12:13:36.902Z,63.89
2017-10-11T12:14:36.603Z,63.51
2017-10-11T12:15:36.609Z,63.6
2017-10-11T12:16:36.963Z,63.89
2017-10-11T12:17:36.650Z,63.45
2017-10-11T12:18:37.007Z,63.32
2017-10-11T12:19:36.692Z,63.7
2017-10-11T12:20:36.713Z,63.7
2017-10-11T12:21:37.068Z,63.64
2017-10-11T12:22:37.093Z,63.35
2017-10-11T12:23:37.114Z,62.96
2017-10-11T12:24:37.133Z,63.25
2017-10-11T12:25:37.154Z,63.15
2017-10-11T12:26:36.841Z,63.25
2017-10-11T12:27:36.859Z,62.96
2017-10-11T12:28:37.221Z,62.96
2017-10-11T12:29:37.234Z,63.06
2017-10-11T12:30:37.258Z,63.15
2017-10-11T12:31:36.946Z,63.35
2017-10-11T12:32:36.967Z,63.35
2017-10-11T12:33:37.323Z,62.87
2017-10-11T12:34:37.342Z,63.25
2017-10-11T12:35:37.367Z,63.06
2017-10-11T12:36:37.049Z,62.58
2017-10-11T12:37:37.073Z,63.15
2017-10-11T12:38:37.424Z,62.77
2017-10-11T12:39:37.453Z,63.15
2017-10-11T12:40:37.135Z,63.15
2017-10-11T12:41:37.158Z,63.06
2017-10-11T12:42:37.518Z,63.15
2017-10-11T12:43:37.535Z,63.15
2017-10-11T12:44:37.554Z,62.48
2017-10-11T12:45:37.577Z,62.19
2017-10-11T12:46:37.262Z,62.58
2017-10-11T12:47:37.616Z,62.58
2017-10-11T12:48:37.639Z,62.68
2017-10-11T12:49:37.328Z,62.68
2017-10-11T12:50:37.348Z,62.68
2017-10-11T12:51:37.703Z,62.58
2017-10-11T12:52:37.729Z,62.87
2017-10-11T12:53:37.745Z,63.06
2017-10-11T12:54:37.464Z,62.87
2017-10-11T12:55:37.518Z,62.87
